Time,TemperatureF,DewpointF,PressureIn,WindDirection,WindDirectionDegrees,WindSpeedMPH,WindSpeedGustMPH,Humidity,HourlyPrecipIn,Conditions,Clouds,dailyrainin,SoftwareType,DateUTC
2013-09-30 00:12:00,47.0,32.0,-100.00,SSW,205,3.0,4.0,57,-99.99,,,0.00,,2013-09-30 06:12:00,
2013-09-30 00:21:00,47.0,32.0,-100.00,SSW,205,3.0,4.0,57,-99.99,,,0.00,,2013-09-30 06:21:00,
2013-09-30 00:42:00,46.0,33.0,-100.00,South,185,5.0,8.0,59,-99.99,,,0.00,,2013-09-30 06:42:00,
2013-09-30 00:52:00,46.0,33.0,-100.00,South,185,5.0,8.0,59,-99.99,,,0.00,,2013-09-30 06:52:00,
2013-09-30 01:12:00,46.0,33.0,-100.00,South,190,6.0,9.0,60,-99.99,,,0.00,,2013-09-30 07:12:00,
2013-09-30 01:21:00,46.0,33.0,-100.00,South,190,6.0,9.0,60,-99.99,,,0.00,,2013-09-30 07:21:00,
2013-09-30 01:42:00,48.0,34.0,-100.00,South,175,7.0,11.0,57,-99.99,,,0.00,,2013-09-30 07:42:00,
2013-09-30 01:52:00,48.0,34.0,-100.00,South,175,7.0,11.0,57,-99.99,,,0.00,,2013-09-30 07:52:00,
2013-09-30 02:00:00,48.0,33.0,-100.00,SSE,150,5.0,7.0,56,-99.99,,,0.00,,2013-09-30 08:00:00,
2013-09-30 02:12:00,49.0,33.0,-100.00,South,190,6.0,9.0,55,-99.99,,,0.00,,2013-09-30 08:12:00,
2013-09-30 02:22:00,49.0,33.0,-100.00,South,190,6.0,9.0,55,-99.99,,,0.00,,2013-09-30 08:22:00,
2013-09-30 02:52:00,48.0,33.0,-100.00,SSE,150,5.0,7.0,56,-99.99,,,0.00,,2013-09-30 08:52:00,
2013-09-30 03:00:00,49.0,34.0,-100.00,South,180,6.0,7.0,55,-99.99,,,0.00,,2013-09-30 09:00:00,
2013-09-30 03:22:00,50.0,34.0,-100.00,South,180,4.0,9.0,54,-99.99,,,0.00,,2013-09-30 09:22:00,
2013-09-30 03:42:00,49.0,34.0,-100.00,South,180,6.0,7.0,55,-99.99,,,0.00,,2013-09-30 09:42:00,
2013-09-30 03:53:00,49.0,34.0,-100.00,South,180,6.0,7.0,55,-99.99,,,0.00,,2013-09-30 09:53:00,
2013-09-30 04:00:00,49.0,33.0,-100.00,SSE,160,5.0,7.0,54,-99.99,,,0.00,,2013-09-30 10:00:00,
2013-09-30 04:22:00,50.0,34.0,-100.00,SSE,160,7.0,13.0,54,-99.99,,,0.00,,2013-09-30 10:22:00,
2013-09-30 04:42:00,49.0,33.0,-100.00,SSE,160,5.0,7.0,54,-99.99,,,0.00,,2013-09-30 10:42:00,
2013-09-30 04:53:00,49.0,33.0,-100.00,SSE,160,5.0,7.0,54,-99.99,,,0.00,,2013-09-30 10:53:00,
2013-09-30 05:00:00,49.0,33.0,-100.00,SW,220,3.0,8.0,55,-99.99,,,0.00,,2013-09-30 11:00:00,
2013-09-30 05:22:00,48.0,32.0,-100.00,SSW,195,4.0,5.0,55,-99.99,,,0.00,,2013-09-30 11:22:00,
2013-09-30 05:43:00,49.0,33.0,-100.00,SW,220,3.0,8.0,55,-99.99,,,0.00,,2013-09-30 11:43:00,
2013-09-30 05:52:00,49.0,33.0,-100.00,SW,220,3.0,8.0,55,-99.99,,,0.00,,2013-09-30 11:52:00,
2013-09-30 06:22:00,50.0,34.0,-100.00,SW,225,5.0,9.0,54,-99.99,,,0.00,,2013-09-30 12:22:00,
2013-09-30 06:42:00,50.0,34.0,-100.00,SW,215,4.0,7.0,54,-99.99,,,0.00,,2013-09-30 12:42:00,
2013-09-30 06:52:00,50.0,34.0,-100.00,SW,215,4.0,7.0,54,-99.99,,,0.00,,2013-09-30 12:52:00,
2013-09-30 07:00:00,52.0,35.0,-100.00,WSW,240,6.0,9.0,53,-99.99,,,0.00,,2013-09-30 13:00:00,
2013-09-30 07:22:00,52.0,35.0,-100.00,SW,220,8.0,12.0,52,-99.99,,,0.00,,2013-09-30 13:22:00,
2013-09-30 07:42:00,52.0,35.0,-100.00,WSW,240,6.0,9.0,53,-99.99,,,0.00,,2013-09-30 13:42:00,
2013-09-30 07:52:00,52.0,35.0,-100.00,WSW,240,6.0,9.0,53,-99.99,,,0.00,,2013-09-30 13:52:00,
2013-09-30 10:53:00,66.0,38.0,-100.00,SW,230,23.0,30.0,36,-99.99,,,0.00,,2013-09-30 16:53:00,
2013-09-30 11:22:00,69.0,38.0,-100.00,SW,235,22.0,37.0,32,-99.99,,,-99.99,,2013-09-30 17:22:00,
2013-09-30 11:43:00,69.0,37.0,-100.00,SW,230,25.0,39.0,31,-99.99,,,0.00,,2013-09-30 17:43:00,
2013-09-30 11:53:00,69.0,37.0,-100.00,SW,230,25.0,39.0,31,-99.99,,,0.00,,2013-09-30 17:53:00,
2013-09-30 12:00:00,71.0,37.0,-100.00,SW,225,31.0,39.0,29,-99.99,,,0.00,,2013-09-30 18:00:00,
2013-09-30 12:12:00,70.0,37.0,-100.00,SW,225,27.0,35.0,30,-99.99,,,0.00,,2013-09-30 18:12:00,
2013-09-30 12:22:00,70.0,37.0,-100.00,SW,225,27.0,35.0,30,-99.99,,,0.00,,2013-09-30 18:22:00,
2013-09-30 12:42:00,71.0,37.0,-100.00,SW,225,31.0,39.0,29,-99.99,,,0.00,,2013-09-30 18:42:00,
2013-09-30 12:53:00,71.0,37.0,-100.00,SW,225,31.0,39.0,29,-99.99,,,0.00,,2013-09-30 18:53:00,
2013-09-30 13:01:00,55.0,33.0,-100.00,NW,320,42.0,49.0,43,-99.99,,,0.00,,2013-09-30 19:01:00,
2013-09-30 13:22:00,56.0,36.0,-100.00,NW,305,37.0,53.0,47,-99.99,,,0.00,,2013-09-30 19:22:00,
2013-09-30 13:42:00,55.0,33.0,-100.00,NW,320,42.0,49.0,43,-99.99,,,0.00,,2013-09-30 19:42:00,
2013-09-30 13:53:00,55.0,33.0,-100.00,NW,320,42.0,49.0,43,-99.99,,,0.00,,2013-09-30 19:53:00,
2013-09-30 14:43:00,53.0,34.0,-100.00,WNW,290,19.0,31.0,49,-99.99,,,0.00,,2013-09-30 20:43:00,
2013-09-30 14:52:00,53.0,34.0,-100.00,WNW,290,19.0,31.0,49,-99.99,,,0.00,,2013-09-30 20:52:00,
2013-09-30 15:01:00,52.0,30.0,-100.00,West,265,26.0,33.0,43,-99.99,,,0.00,,2013-09-30 21:01:00,
2013-09-30 15:11:00,53.0,33.0,-100.00,West,280,25.0,35.0,46,-99.99,,,0.00,,2013-09-30 21:11:00,
2013-09-30 15:22:00,53.0,33.0,-100.00,West,280,25.0,35.0,46,-99.99,,,0.00,,2013-09-30 21:22:00,
2013-09-30 15:44:00,52.0,30.0,-100.00,West,265,26.0,33.0,43,-99.99,,,0.00,,2013-09-30 21:44:00,
2013-09-30 15:54:00,52.0,30.0,-100.00,West,265,26.0,33.0,43,-99.99,,,0.00,,2013-09-30 21:54:00,
2013-09-30 16:23:00,50.0,35.0,-100.00,West,260,13.0,25.0,57,-99.99,,,0.00,,2013-09-30 22:23:00,
2013-09-30 16:43:00,53.0,34.0,-100.00,West,275,14.0,24.0,49,-99.99,,,0.00,,2013-09-30 22:43:00,
2013-09-30 16:54:00,53.0,34.0,-100.00,West,275,14.0,24.0,49,-99.99,,,0.00,,2013-09-30 22:54:00,
2013-09-30 17:12:00,53.0,32.0,-100.00,West,265,16.0,23.0,44,-99.99,,,0.00,,2013-09-30 23:12:00,
2013-09-30 17:23:00,53.0,32.0,-100.00,West,265,16.0,23.0,44,-99.99,,,0.00,,2013-09-30 23:23:00,
2013-09-30 17:43:00,55.0,32.0,-100.00,WNW,290,19.0,27.0,41,-99.99,,,0.00,,2013-09-30 23:43:00,
2013-09-30 17:53:00,55.0,32.0,-100.00,WNW,290,19.0,27.0,41,-99.99,,,0.00,,2013-09-30 23:53:00,
2013-09-30 18:12:00,58.0,30.0,-100.00,West,265,29.0,39.0,34,-99.99,,,0.00,,2013-10-01 00:12:00,
2013-09-30 18:52:00,56.0,29.0,-100.00,West,275,24.0,36.0,35,-99.99,,,0.00,,2013-10-01 00:52:00,
2013-09-30 19:12:00,56.0,28.0,-100.00,West,265,17.0,24.0,34,-99.99,,,0.00,,2013-10-01 01:12:00,
2013-09-30 19:42:00,54.0,26.0,-100.00,West,270,12.0,22.0,34,-99.99,,,0.00,,2013-10-01 01:42:00,
2013-09-30 19:52:00,54.0,26.0,-100.00,West,270,12.0,22.0,34,-99.99,,,0.00,,2013-10-01 01:52:00,
2013-09-30 20:12:00,54.0,24.0,-100.00,West,280,18.0,32.0,30,-99.99,,,0.00,,2013-10-01 02:12:00,
2013-09-30 20:43:00,54.0,22.0,-100.00,West,275,24.0,40.0,28,-99.99,,,0.00,,2013-10-01 02:43:00,
2013-09-30 20:52:00,54.0,22.0,-100.00,West,275,24.0,40.0,28,-99.99,,,0.00,,2013-10-01 02:52:00,
2013-09-30 21:12:00,54.0,22.0,-100.00,West,280,21.0,34.0,28,-99.99,,,0.00,,2013-10-01 03:12:00,
2013-09-30 21:44:00,54.0,21.0,-100.00,WNW,285,18.0,30.0,28,-99.99,,,0.00,,2013-10-01 03:44:00,
2013-09-30 21:54:00,54.0,21.0,-100.00,WNW,285,18.0,30.0,28,-99.99,,,0.00,,2013-10-01 03:54:00,
2013-09-30 22:14:00,54.0,21.0,-100.00,West,270,22.0,34.0,27,-99.99,,,0.00,,2013-10-01 04:14:00,